Time;durP1;ratioP1;P1;durP2;ratioP2;P2;SDS_P1;SDS_P2;PMS_P1;PMS_P2;Temp;Humidity;BMP_temperature;BMP_pressure;BME280_temperature;BME280_humidity;BME280_pressure;Samples;Min_cycle;Max_cycle;Signal;HPM_P1;HPM_P2
2021/01/06 00:01:14;;;;;;;16.50;10.23;;;4.10;99.90;;;;;;5034182;28;20914;-72
2021/01/06 00:03:40;;;;;;;21.77;13.00;;;4.20;99.90;;;;;;5034341;28;20337;-73
2021/01/06 00:06:09;;;;;;;21.20;11.20;;;4.30;99.90;;;;;;5034385;28;20632;-73
2021/01/06 00:08:35;;;;;;;26.00;13.50;;;4.40;99.90;;;;;;5034099;28;20660;-73
2021/01/06 00:11:02;;;;;;;21.07;12.30;;;4.30;99.90;;;;;;5034238;28;20402;-73
2021/01/06 00:13:29;;;;;;;18.63;11.70;;;4.30;99.90;;;;;;5033179;28;20454;-73
2021/01/06 00:15:54;;;;;;;24.97;13.70;;;4.20;99.90;;;;;;5033306;28;20465;-73
2021/01/06 00:18:22;;;;;;;17.90;11.00;;;4.30;99.90;;;;;;5034248;28;20398;-73
2021/01/06 00:20:48;;;;;;;24.27;13.67;;;4.40;99.90;;;;;;5065854;28;20190;-73
2021/01/06 00:23:14;;;;;;;18.57;11.93;;;4.40;99.90;;;;;;5033687;28;20461;-73
2021/01/06 00:25:43;;;;;;;19.67;11.20;;;4.30;99.90;;;;;;5033389;28;20450;-73
2021/01/06 00:28:12;;;;;;;19.77;12.03;;;4.20;99.90;;;;;;5033882;28;20233;-73
2021/01/06 00:30:47;;;;;;;18.90;12.10;;;4.20;99.90;;;;;;5034546;28;20457;-73
2021/01/06 00:33:16;;;;;;;20.60;11.73;;;4.20;99.90;;;;;;5065264;28;20512;-73
2021/01/06 00:35:42;;;;;;;15.47;10.27;;;4.30;99.90;;;;;;5030073;28;20526;-73
2021/01/06 00:38:08;;;;;;;21.00;13.40;;;4.30;99.90;;;;;;5025286;28;20434;-73
2021/01/06 00:40:35;;;;;;;22.60;13.23;;;4.30;99.90;;;;;;5026371;28;20434;-72
2021/01/06 00:43:07;;;;;;;17.03;12.17;;;4.40;99.90;;;;;;5024653;28;20782;-73
2021/01/06 00:45:33;;;;;;;24.87;13.50;;;4.60;99.90;;;;;;5023912;28;20461;-72
2021/01/06 00:47:59;;;;;;;21.50;14.40;;;4.60;99.90;;;;;;5025625;28;20500;-72
2021/01/06 00:50:27;;;;;;;22.20;12.20;;;4.60;99.90;;;;;;5057802;28;20524;-73
2021/01/06 00:53:16;;;;;;;20.90;13.40;;;4.60;99.90;;;;;;5027448;28;20676;-72
2021/01/06 00:55:44;;;;;;;21.83;13.30;;;4.70;99.90;;;;;;5035329;28;20460;-73
2021/01/06 00:58:10;;;;;;;24.43;15.93;;;4.90;99.90;;;;;;5025318;28;20430;-72
2021/01/06 01:00:35;;;;;;;27.43;14.83;;;4.90;99.90;;;;;;5024373;28;20482;-73
2021/01/06 01:03:01;;;;;;;30.93;15.20;;;5.00;99.90;;;;;;5025343;28;20191;-73
2021/01/06 01:05:29;;;;;;;24.37;14.90;;;4.90;99.90;;;;;;5025876;28;20210;-72
2021/01/06 01:07:56;;;;;;;24.20;14.73;;;5.00;99.90;;;;;;5029142;28;20183;-73
2021/01/06 01:10:27;;;;;;;26.90;15.00;;;5.00;99.90;;;;;;5025389;28;20427;-73
2021/01/06 01:12:54;;;;;;;28.23;14.73;;;5.00;99.90;;;;;;5026009;28;20446;-72
2021/01/06 01:15:24;;;;;;;26.63;14.63;;;5.10;99.90;;;;;;5032442;28;20988;-73
2021/01/06 01:17:50;;;;;;;31.40;15.43;;;5.10;99.90;;;;;;5033409;28;20792;-73
2021/01/06 01:20:17;;;;;;;33.13;16.07;;;5.10;99.90;;;;;;5033245;28;20440;-73
2021/01/06 01:22:44;;;;;;;25.97;14.60;;;5.10;99.90;;;;;;5032495;28;20460;-73
2021/01/06 01:25:15;;;;;;;32.40;15.80;;;5.10;99.90;;;;;;5031928;28;20485;-73
2021/01/06 01:27:42;;;;;;;28.87;15.90;;;5.10;99.90;;;;;;5018941;28;20445;-73
2021/01/06 01:30:17;;;;;;;29.93;15.80;;;5.10;99.90;;;;;;5033014;28;20439;-73
2021/01/06 01:32:44;;;;;;;33.77;15.70;;;5.10;99.90;;;;;;5032623;28;21269;-73
2021/01/06 01:35:11;;;;;;;26.37;16.47;;;5.20;99.90;;;;;;5026573;28;20471;-73
2021/01/06 01:37:41;;;;;;;29.70;16.30;;;5.10;99.90;;;;;;5030897;28;20426;-73
2021/01/06 01:40:08;;;;;;;25.00;15.10;;;5.20;99.90;;;;;;5031990;28;20481;-73
2021/01/06 01:42:33;;;;;;;27.00;14.80;;;5.10;99.90;;;;;;5030959;28;20997;-73
2021/01/06 01:45:04;;;;;;;25.57;15.60;;;5.10;99.90;;;;;;5031976;28;20434;-72
2021/01/06 01:48:01;;;;;;;24.47;15.30;;;5.20;99.90;;;;;;5032797;28;20186;-73
2021/01/06 01:50:28;;;;;;;22.73;14.20;;;5.20;99.90;;;;;;5020157;28;20438;-73
2021/01/06 01:53:04;;;;;;;21.20;13.40;;;5.20;99.90;;;;;;5027551;28;20454;-73
2021/01/06 01:55:30;;;;;;;25.80;14.33;;;5.20;99.90;;;;;;5032657;28;20480;-73
2021/01/06 01:58:01;;;;;;;26.90;15.73;;;5.10;99.90;;;;;;5031484;28;20764;-73
2021/01/06 02:00:31;;;;;;;23.63;13.80;;;5.20;99.90;;;;;;5030294;28;20505;-73
2021/01/06 02:03:12;;;;;;;20.10;13.40;;;5.20;99.90;;;;;;5030508;28;20446;-73
2021/01/06 02:05:57;;;;;;;15.70;11.47;;;5.20;99.90;;;;;;5032171;28;20421;-73
2021/01/06 02:08:58;;;;;;;17.00;11.77;;;5.10;99.90;;;;;;5032120;28;20939;-73
2021/01/06 02:11:24;;;;;;;23.13;11.80;;;5.10;99.90;;;;;;5026814;28;20429;-73
2021/01/06 02:14:02;;;;;;;19.53;11.90;;;5.00;99.90;;;;;;5024844;28;20481;-73
2021/01/06 02:16:36;;;;;;;21.47;12.53;;;5.00;99.90;;;;;;5024112;28;20238;-73
2021/01/06 02:19:03;;;;;;;21.97;11.73;;;4.90;99.90;;;;;;5025521;28;20483;-73
2021/01/06 02:21:29;;;;;;;19.63;11.67;;;4.90;99.90;;;;;;5031287;28;20797;-73
2021/01/06 02:23:58;;;;;;;21.47;11.27;;;4.90;99.90;;;;;;5029663;28;20442;-74
2021/01/06 02:26:26;;;;;;;17.30;12.23;;;5.00;99.90;;;;;;5031751;28;20236;-73
2021/01/06 02:28:52;;;;;;;17.03;11.30;;;5.10;99.90;;;;;;5030568;28;20463;-74
2021/01/06 02:31:19;;;;;;;19.17;11.77;;;5.10;99.90;;;;;;5029919;28;20444;-73
2021/01/06 02:33:45;;;;;;;17.20;10.47;;;5.20;99.90;;;;;;5031070;28;20816;-73
2021/01/06 02:36:12;;;;;;;19.13;11.93;;;5.30;99.90;;;;;;5030315;28;20461;-73
2021/01/06 02:38:38;;;;;;;20.43;12.47;;;5.30;99.90;;;;;;5023707;28;20441;-73
2021/01/06 02:41:05;;;;;;;19.03;11.60;;;5.40;99.90;;;;;;5027826;28;20512;-73
2021/01/06 02:43:31;;;;;;;17.17;10.23;;;5.40;99.90;;;;;;5029851;28;20592;-74
2021/01/06 02:45:57;;;;;;;15.17;10.87;;;5.40;99.90;;;;;;5031971;28;20430;-73
2021/01/06 02:48:24;;;;;;;16.30;10.73;;;5.40;99.90;;;;;;5034354;28;20441;-73
2021/01/06 02:50:55;;;;;;;17.80;11.50;;;5.40;99.90;;;;;;5035449;28;20764;-73
2021/01/06 02:53:28;;;;;;;16.97;12.60;;;5.50;99.90;;;;;;5036205;28;20454;-73
2021/01/06 02:55:54;;;;;;;17.03;9.87;;;5.50;99.90;;;;;;5067386;28;20457;-73
2021/01/06 02:58:22;;;;;;;16.70;10.23;;;5.50;99.90;;;;;;5035231;28;20441;-73
2021/01/06 03:00:52;;;;;;;15.67;10.23;;;5.60;99.90;;;;;;5050662;28;20427;-73
2021/01/06 03:03:23;;;;;;;15.67;10.70;;;5.60;99.90;;;;;;5034525;28;20862;-73
2021/01/06 03:06:09;;;;;;;16.70;11.33;;;5.60;99.90;;;;;;5043345;28;20481;-73
2021/01/06 03:08:37;;;;;;;15.53;10.43;;;5.60;99.90;;;;;;5032669;28;20472;-73
2021/01/06 03:11:04;;;;;;;19.73;12.00;;;5.70;99.90;;;;;;5034122;28;20462;-73
2021/01/06 03:13:30;;;;;;;14.70;11.37;;;5.60;99.90;;;;;;5034223;28;20971;-73
2021/01/06 03:15:56;;;;;;;14.23;10.63;;;5.60;99.90;;;;;;5034684;28;20473;-73
2021/01/06 03:18:21;;;;;;;14.57;10.73;;;5.60;99.90;;;;;;5034026;28;20437;-73
2021/01/06 03:20:49;;;;;;;15.57;9.60;;;5.60;99.90;;;;;;5033331;28;20437;-73
2021/01/06 03:23:30;;;;;;;16.70;9.93;;;5.60;99.90;;;;;;5035062;28;20195;-73
2021/01/06 03:25:58;;;;;;;15.70;11.70;;;5.70;99.90;;;;;;5024155;28;20433;-73
2021/01/06 03:28:26;;;;;;;18.37;10.60;;;5.70;99.90;;;;;;5033696;28;20483;-74
2021/01/06 03:30:55;;;;;;;16.23;11.10;;;5.70;99.90;;;;;;5034744;28;20851;-73
2021/01/06 03:33:33;;;;;;;16.67;13.20;;;5.70;99.90;;;;;;5034494;28;20461;-73
2021/01/06 03:36:08;;;;;;;22.13;12.20;;;5.70;99.90;;;;;;5025984;28;20560;-73
2021/01/06 03:38:33;;;;;;;16.13;11.43;;;5.70;99.90;;;;;;5033341;28;20437;-73
2021/01/06 03:41:00;;;;;;;17.20;11.53;;;5.70;99.90;;;;;;5038500;28;20418;-74
2021/01/06 03:43:29;;;;;;;16.70;12.03;;;5.70;99.90;;;;;;5033594;28;20206;-72
2021/01/06 03:46:03;;;;;;;16.23;10.53;;;5.80;99.90;;;;;;5056994;28;20472;-73
2021/01/06 03:48:40;;;;;;;19.77;11.00;;;5.70;99.90;;;;;;5032521;28;20474;-73
2021/01/06 03:51:27;;;;;;;16.07;11.30;;;5.70;99.90;;;;;;5033138;28;20414;-73
2021/01/06 03:53:59;;;;;;;13.47;9.33;;;5.60;99.90;;;;;;5031689;28;20485;-73
2021/01/06 03:56:27;;;;;;;16.40;10.00;;;5.70;99.90;;;;;;5033382;28;20497;-73
2021/01/06 03:59:12;;;;;;;17.40;11.57;;;5.70;99.90;;;;;;5029902;28;20524;-73
2021/01/06 04:01:56;;;;;;;14.90;10.07;;;5.60;99.90;;;;;;5035004;28;20414;-73
2021/01/06 04:04:39;;;;;;;12.73;8.80;;;5.70;99.90;;;;;;5034471;28;21033;-73
2021/01/06 04:07:12;;;;;;;14.80;9.80;;;5.60;99.90;;;;;;5033517;28;20422;-73
2021/01/06 04:09:44;;;;;;;13.43;9.73;;;5.60;99.90;;;;;;5034034;28;20446;-73
2021/01/06 04:12:13;;;;;;;14.60;10.03;;;5.70;99.90;;;;;;5026123;28;20438;-73
2021/01/06 04:14:39;;;;;;;12.83;9.00;;;5.60;99.90;;;;;;5044698;28;20453;-73
2021/01/06 04:17:28;;;;;;;12.80;10.30;;;5.70;99.90;;;;;;5054816;28;20459;-73
2021/01/06 04:19:56;;;;;;;15.73;9.30;;;5.70;99.90;;;;;;5014666;28;20943;-73
2021/01/06 04:22:48;;;;;;;12.63;9.17;;;5.70;99.90;;;;;;5012938;28;20475;-73
2021/01/06 04:25:23;;;;;;;12.30;10.17;;;5.60;99.90;;;;;;5031016;28;20499;-73
2021/01/06 04:27:52;;;;;;;14.40;10.53;;;5.70;99.90;;;;;;5035076;28;20887;-73
2021/01/06 04:30:32;;;;;;;15.80;10.77;;;5.70;99.90;;;;;;5038962;28;20487;-74
2021/01/06 04:33:00;;;;;;;13.73;9.73;;;5.70;99.90;;;;;;5048967;28;20511;-74
2021/01/06 04:35:28;;;;;;;13.17;8.93;;;5.70;99.90;;;;;;5034785;28;20458;-73
2021/01/06 04:37:55;;;;;;;16.47;9.73;;;5.70;99.90;;;;;;5035001;28;20410;-74
2021/01/06 04:40:24;;;;;;;14.53;9.57;;;5.70;99.90;;;;;;5034935;28;20406;-73
2021/01/06 04:42:50;;;;;;;16.10;9.97;;;5.70;99.90;;;;;;5035376;28;20418;-73
2021/01/06 04:45:23;;;;;;;13.13;9.93;;;5.70;99.90;;;;;;5035129;28;20904;-73
2021/01/06 04:48:02;;;;;;;13.80;10.23;;;5.70;99.90;;;;;;5029144;28;20504;-73
2021/01/06 04:50:40;;;;;;;17.10;10.57;;;5.70;99.90;;;;;;5033431;28;20386;-73
2021/01/06 04:53:38;;;;;;;15.60;11.03;;;5.70;99.90;;;;;;5035917;28;20785;-73
2021/01/06 04:56:31;;;;;;;14.77;10.03;;;5.70;99.90;;;;;;5019301;28;20935;-73
2021/01/06 04:59:14;;;;;;;9.77;8.67;;;5.70;99.90;;;;;;5035811;28;20437;-73
2021/01/06 05:02:12;;;;;;;15.60;10.77;;;5.70;99.90;;;;;;5032931;28;20454;-73
2021/01/06 05:04:53;;;;;;;15.03;11.70;;;5.70;99.90;;;;;;5033281;28;20805;-74
2021/01/06 05:07:55;;;;;;;17.13;11.23;;;5.70;99.90;;;;;;5033074;28;20467;-74
2021/01/06 05:10:38;;;;;;;19.63;11.70;;;5.70;99.90;;;;;;5033076;28;20895;-74
2021/01/06 05:13:34;;;;;;;16.33;10.43;;;5.60;99.90;;;;;;5033135;28;20987;-74
2021/01/06 05:16:23;;;;;;;12.57;9.20;;;5.70;99.90;;;;;;5032984;28;20461;-74
2021/01/06 05:18:49;;;;;;;17.40;11.83;;;5.70;99.90;;;;;;5033068;28;20410;-74
2021/01/06 05:21:21;;;;;;;24.83;16.00;;;5.70;99.90;;;;;;5031541;28;20441;-73
2021/01/06 05:23:51;;;;;;;30.97;20.03;;;5.60;99.90;;;;;;5033002;28;20637;-74
2021/01/06 05:26:18;;;;;;;13.63;8.80;;;5.40;99.90;;;;;;5032444;28;20795;-73
2021/01/06 05:28:46;;;;;;;11.63;8.80;;;5.20;99.90;;;;;;5032804;28;20414;-75
2021/01/06 05:31:11;;;;;;;13.47;8.77;;;5.00;99.90;;;;;;5032573;28;20770;-74
2021/01/06 05:33:44;;;;;;;13.03;7.70;;;5.00;99.90;;;;;;5032470;28;20445;-74
2021/01/06 05:36:16;;;;;;;8.33;6.77;;;4.70;99.90;;;;;;5031363;28;20286;-73
2021/01/06 05:38:41;;;;;;;8.67;6.47;;;4.70;99.90;;;;;;5032692;28;20402;-73
2021/01/06 05:41:07;;;;;;;6.87;5.30;;;4.70;99.90;;;;;;5033082;28;20468;-73
2021/01/06 05:43:43;;;;;;;8.93;5.80;;;4.70;99.90;;;;;;5034777;28;20198;-73
2021/01/06 05:46:15;;;;;;;8.10;6.20;;;4.80;99.90;;;;;;5035382;28;20535;-73
2021/01/06 05:48:44;;;;;;;10.07;6.93;;;4.70;99.90;;;;;;5034639;28;20414;-73
2021/01/06 05:51:24;;;;;;;7.83;5.83;;;4.70;99.90;;;;;;5035311;28;20444;-73
2021/01/06 05:53:57;;;;;;;10.27;6.87;;;4.70;99.90;;;;;;5035171;28;20500;-73
2021/01/06 05:56:30;;;;;;;8.70;5.93;;;4.80;99.90;;;;;;5032338;28;20456;-73
2021/01/06 05:59:10;;;;;;;12.43;8.57;;;4.90;99.90;;;;;;5032258;28;20910;-74
2021/01/06 06:01:51;;;;;;;9.83;7.23;;;5.00;99.90;;;;;;5031754;28;20910;-73
2021/01/06 06:04:23;;;;;;;8.87;6.53;;;4.90;99.90;;;;;;5034450;28;20465;-73
2021/01/06 06:07:17;;;;;;;9.77;7.10;;;4.80;99.90;;;;;;5034911;28;20407;-73
2021/01/06 06:09:59;;;;;;;9.80;7.83;;;4.70;99.90;;;;;;5033982;28;20426;-73
2021/01/06 06:12:44;;;;;;;9.13;7.17;;;4.70;99.90;;;;;;5032789;28;20515;-74
2021/01/06 06:15:34;;;;;;;9.93;7.40;;;4.80;99.90;;;;;;5033253;28;20454;-74
2021/01/06 06:18:17;;;;;;;13.13;7.47;;;4.90;99.90;;;;;;5032124;28;20460;-73
2021/01/06 06:20:55;;;;;;;12.70;7.10;;;4.90;99.90;;;;;;5031151;28;20406;-73
2021/01/06 06:23:35;;;;;;;13.10;8.33;;;5.00;99.90;;;;;;5031933;28;20433;-74
2021/01/06 06:26:19;;;;;;;12.47;8.40;;;5.10;99.90;;;;;;5031996;28;20410;-74
2021/01/06 06:29:21;;;;;;;12.10;7.60;;;5.10;99.90;;;;;;5030808;28;20410;-73
2021/01/06 06:31:51;;;;;;;16.63;9.97;;;5.20;99.90;;;;;;5002629;28;20414;-74
2021/01/06 06:34:26;;;;;;;19.40;13.10;;;5.20;99.90;;;;;;5012092;28;20435;-74
2021/01/06 06:37:06;;;;;;;20.63;13.10;;;5.20;99.90;;;;;;5012275;28;20437;-74
2021/01/06 06:39:45;;;;;;;21.30;14.70;;;5.30;99.90;;;;;;5014510;28;20399;-73
2021/01/06 06:42:33;;;;;;;17.90;13.10;;;5.30;99.90;;;;;;5011942;28;20465;-74
2021/01/06 06:45:03;;;;;;;17.70;11.97;;;5.30;99.90;;;;;;5012129;28;20758;-74
2021/01/06 06:47:49;;;;;;;16.37;11.40;;;5.40;99.90;;;;;;5010785;28;20794;-74
2021/01/06 06:50:47;;;;;;;15.60;10.03;;;5.40;99.90;;;;;;5012228;28;20435;-74
2021/01/06 06:53:36;;;;;;;16.80;10.90;;;5.30;99.90;;;;;;5033090;28;20444;-74
2021/01/06 06:56:14;;;;;;;17.33;9.77;;;5.30;99.90;;;;;;5051673;28;20876;-74
2021/01/06 06:58:52;;;;;;;15.83;10.87;;;5.30;99.90;;;;;;5043782;28;20426;-74
2021/01/06 07:01:32;;;;;;;14.30;10.17;;;5.20;99.90;;;;;;5030221;28;20414;-74
2021/01/06 07:04:03;;;;;;;15.17;11.83;;;5.30;99.90;;;;;;5030390;28;20442;-74
2021/01/06 07:06:30;;;;;;;14.17;9.70;;;5.30;99.90;;;;;;5031713;28;20401;-74
2021/01/06 07:08:59;;;;;;;14.47;9.80;;;5.30;99.90;;;;;;5031606;28;20413;-74
2021/01/06 07:11:27;;;;;;;17.07;11.00;;;5.20;99.90;;;;;;5031517;28;20803;-74
2021/01/06 07:13:59;;;;;;;11.83;9.27;;;5.30;99.90;;;;;;5031615;28;20433;-74
2021/01/06 07:16:42;;;;;;;13.40;9.90;;;5.30;99.90;;;;;;5030744;28;20466;-73
2021/01/06 07:19:19;;;;;;;13.53;10.30;;;5.30;99.90;;;;;;5031308;28;21128;-74
2021/01/06 07:21:51;;;;;;;12.60;10.27;;;5.20;99.90;;;;;;5029833;28;20414;-74
2021/01/06 07:24:20;;;;;;;14.83;10.60;;;5.30;99.90;;;;;;5031427;28;20509;-73
2021/01/06 07:27:01;;;;;;;14.97;10.83;;;5.30;99.90;;;;;;5030058;28;20414;-73
2021/01/06 07:29:33;;;;;;;15.97;11.60;;;5.30;99.90;;;;;;5029957;28;20426;-74
2021/01/06 07:32:09;;;;;;;14.10;10.90;;;5.30;99.90;;;;;;5032946;28;20406;-74
2021/01/06 07:34:48;;;;;;;15.43;11.33;;;5.40;99.90;;;;;;5034864;28;20456;-73
2021/01/06 07:37:47;;;;;;;13.50;10.70;;;5.30;99.90;;;;;;5035015;28;20410;-74
2021/01/06 07:40:15;;;;;;;19.17;11.60;;;5.30;99.90;;;;;;5036159;28;20456;-73
2021/01/06 07:42:45;;;;;;;15.40;10.87;;;5.30;99.90;;;;;;5034869;28;20418;-73
2021/01/06 07:45:13;;;;;;;19.17;11.60;;;5.30;99.90;;;;;;5034341;28;20473;-73
2021/01/06 07:47:42;;;;;;;17.13;11.23;;;5.30;99.90;;;;;;5066878;28;20931;-74
2021/01/06 07:50:14;;;;;;;15.70;10.43;;;5.30;99.90;;;;;;5034409;28;20421;-74
2021/01/06 07:52:46;;;;;;;16.67;11.00;;;5.30;99.90;;;;;;5034442;28;20905;-73
2021/01/06 07:55:41;;;;;;;19.17;11.23;;;5.30;99.90;;;;;;5034245;28;20454;-73
2021/01/06 07:58:17;;;;;;;18.13;10.20;;;5.30;99.90;;;;;;5066547;28;20963;-73
2021/01/06 08:01:06;;;;;;;14.17;10.30;;;5.30;99.90;;;;;;5034237;28;20413;-73
2021/01/06 08:03:57;;;;;;;14.60;10.10;;;5.30;99.90;;;;;;5025691;28;20483;-73
2021/01/06 08:06:52;;;;;;;16.73;11.20;;;5.30;99.90;;;;;;5034227;28;20866;-74
2021/01/06 08:09:29;;;;;;;25.87;11.53;;;5.40;99.90;;;;;;5032916;28;20962;-73
2021/01/06 08:11:55;;;;;;;15.60;12.67;;;5.30;99.90;;;;;;5033868;28;20476;-74
2021/01/06 08:14:27;;;;;;;18.70;12.77;;;5.30;99.90;;;;;;5066333;28;20430;-73
2021/01/06 08:17:33;;;;;;;18.60;12.80;;;5.40;99.90;;;;;;5036053;28;21117;-74
2021/01/06 08:20:04;;;;;;;20.87;12.60;;;5.40;99.90;;;;;;5014236;28;20427;-73
2021/01/06 08:22:41;;;;;;;19.83;13.90;;;5.40;99.90;;;;;;5011425;28;20525;-73
2021/01/06 08:25:21;;;;;;;18.50;12.30;;;5.40;99.90;;;;;;5017105;28;20446;-72
2021/01/06 08:27:46;;;;;;;15.93;12.33;;;5.40;99.90;;;;;;5036367;28;20405;-73
2021/01/06 08:30:17;;;;;;;16.37;13.67;;;5.50;99.90;;;;;;5035684;28;20408;-73
2021/01/06 08:32:43;;;;;;;17.13;12.03;;;5.50;99.90;;;;;;5067551;28;20282;-73
2021/01/06 08:35:18;;;;;;;19.80;13.37;;;5.70;99.90;;;;;;5034765;28;20457;-73
2021/01/06 08:37:48;;;;;;;15.03;11.77;;;5.80;99.90;;;;;;5034389;28;20489;-74
2021/01/06 08:40:36;;;;;;;19.20;12.10;;;5.90;99.90;;;;;;5033585;28;20407;-73
2021/01/06 08:43:13;;;;;;;15.53;12.33;;;6.00;99.90;;;;;;5030942;28;20454;-73
2021/01/06 08:45:53;;;;;;;18.33;13.30;;;5.80;99.90;;;;;;5037834;28;20876;-73
2021/01/06 08:48:32;;;;;;;20.63;13.80;;;5.90;99.90;;;;;;5040207;28;20793;-74
2021/01/06 08:51:10;;;;;;;19.77;13.90;;;5.90;99.90;;;;;;5053106;28;20400;-73
2021/01/06 08:53:38;;;;;;;17.90;13.00;;;6.00;99.90;;;;;;5039640;28;20450;-74
2021/01/06 08:56:09;;;;;;;23.60;14.37;;;5.90;99.90;;;;;;5033304;28;20489;-73
2021/01/06 08:58:45;;;;;;;19.20;13.53;;;5.90;99.90;;;;;;5032089;28;20410;-73
2021/01/06 09:01:19;;;;;;;23.40;13.20;;;5.90;99.90;;;;;;5046214;28;20405;-73
2021/01/06 09:04:01;;;;;;;17.87;13.00;;;5.90;99.90;;;;;;5038998;28;20466;-74
2021/01/06 09:06:27;;;;;;;16.00;13.10;;;6.00;99.90;;;;;;5032648;28;20927;-73
2021/01/06 09:09:04;;;;;;;19.60;13.33;;;5.90;99.90;;;;;;5031794;28;20441;-73
2021/01/06 09:11:44;;;;;;;18.50;13.57;;;6.00;99.90;;;;;;5031715;28;20179;-73
2021/01/06 09:14:21;;;;;;;16.43;12.10;;;6.20;99.90;;;;;;5063678;28;20499;-73
2021/01/06 09:16:50;;;;;;;18.50;13.53;;;6.30;99.90;;;;;;5064653;28;20421;-74
2021/01/06 09:19:33;;;;;;;17.37;12.50;;;6.50;99.90;;;;;;5032824;28;20424;-74
2021/01/06 09:21:59;;;;;;;17.23;12.10;;;6.40;99.90;;;;;;5032838;28;20394;-73
2021/01/06 09:24:32;;;;;;;16.77;12.67;;;6.70;99.90;;;;;;5032790;28;20414;-73
2021/01/06 09:27:05;;;;;;;17.20;14.43;;;7.00;99.90;;;;;;5032736;28;20433;-73
2021/01/06 09:29:38;;;;;;;18.63;12.20;;;7.00;99.90;;;;;;5031353;28;20446;-74
2021/01/06 09:32:13;;;;;;;16.83;13.47;;;7.00;99.90;;;;;;5033860;28;20414;-73
2021/01/06 09:34:42;;;;;;;18.23;13.50;;;6.90;99.90;;;;;;5034247;28;20460;-73
2021/01/06 09:37:20;;;;;;;20.93;12.60;;;6.70;99.90;;;;;;5035050;28;20497;-74
2021/01/06 09:39:47;;;;;;;16.10;12.67;;;6.50;99.90;;;;;;5034107;28;20433;-73
2021/01/06 09:42:14;;;;;;;16.77;12.80;;;6.50;99.90;;;;;;5032224;28;20395;-73
2021/01/06 09:44:40;;;;;;;17.10;12.87;;;6.30;99.90;;;;;;5034654;28;20414;-73
2021/01/06 09:47:26;;;;;;;20.73;14.90;;;6.30;99.90;;;;;;5032918;28;20422;-73
2021/01/06 09:49:59;;;;;;;18.10;13.33;;;6.30;99.90;;;;;;5033252;28;20159;-73
2021/01/06 09:52:34;;;;;;;16.80;13.07;;;6.20;99.90;;;;;;5032017;28;20430;-73
2021/01/06 09:55:01;;;;;;;20.73;14.47;;;6.20;99.90;;;;;;5033605;28;20456;-73
2021/01/06 09:57:28;;;;;;;17.53;12.83;;;6.20;99.90;;;;;;5034401;28;20485;-73
2021/01/06 09:59:57;;;;;;;17.43;12.60;;;6.10;99.90;;;;;;5032633;28;20429;-74
2021/01/06 10:02:28;;;;;;;26.97;17.50;;;6.30;99.90;;;;;;5032082;28;20599;-73
2021/01/06 10:05:02;;;;;;;20.23;16.30;;;6.40;99.90;;;;;;5032311;28;20437;-73
2021/01/06 10:07:35;;;;;;;20.37;13.67;;;6.40;99.90;;;;;;5033572;28;20895;-74
2021/01/06 10:10:27;;;;;;;18.20;12.77;;;6.30;99.90;;;;;;5064506;28;20474;-73
2021/01/06 10:13:17;;;;;;;17.80;13.73;;;6.30;99.90;;;;;;5032366;28;20418;-74
2021/01/06 10:16:11;;;;;;;18.97;14.27;;;6.30;99.90;;;;;;5032312;28;20476;-73
2021/01/06 10:18:51;;;;;;;19.67;14.27;;;6.30;99.90;;;;;;5033195;28;20390;-73
2021/01/06 10:21:35;;;;;;;18.23;14.13;;;6.20;99.90;;;;;;5033661;28;20418;-74
2021/01/06 10:24:21;;;;;;;24.80;16.10;;;6.00;99.90;;;;;;5034301;28;20534;-73
2021/01/06 10:27:01;;;;;;;20.70;15.40;;;5.90;99.90;;;;;;5032452;28;20760;-73
2021/01/06 10:29:29;;;;;;;18.10;13.90;;;5.90;99.90;;;;;;5031731;28;20426;-74
2021/01/06 10:32:01;;;;;;;19.37;14.07;;;5.80;99.90;;;;;;5031785;28;20414;-74
2021/01/06 10:34:47;;;;;;;19.60;14.60;;;5.70;99.90;;;;;;5031740;28;20422;-73
2021/01/06 10:37:29;;;;;;;27.37;18.80;;;5.60;99.90;;;;;;5031941;28;20398;-74
2021/01/06 10:39:57;;;;;;;21.30;13.93;;;5.50;99.90;;;;;;5063630;28;20426;-73
2021/01/06 10:42:22;;;;;;;21.23;15.20;;;5.50;99.90;;;;;;5031572;28;20399;-73
2021/01/06 10:45:25;;;;;;;22.40;15.37;;;5.60;99.90;;;;;;5030512;28;20430;-74
2021/01/06 10:47:52;;;;;;;18.40;12.57;;;5.50;99.90;;;;;;5031517;28;20186;-73
2021/01/06 10:50:24;;;;;;;19.63;14.30;;;5.60;99.90;;;;;;5031562;28;20480;-73
2021/01/06 10:53:17;;;;;;;17.53;13.63;;;5.60;99.90;;;;;;5031585;28;20421;-73
2021/01/06 10:56:03;;;;;;;24.03;14.10;;;5.50;99.90;;;;;;5031629;28;20454;-73
2021/01/06 10:58:57;;;;;;;18.53;15.13;;;5.50;99.90;;;;;;5032005;28;20948;-73
2021/01/06 11:01:39;;;;;;;18.93;11.77;;;5.60;99.90;;;;;;5032272;28;20444;-75
2021/01/06 11:04:08;;;;;;;16.10;11.47;;;5.70;99.90;;;;;;5032476;28;20414;-75
2021/01/06 11:06:45;;;;;;;14.80;10.60;;;6.30;99.90;;;;;;5034000;28;20398;-75
2021/01/06 11:09:47;;;;;;;16.27;11.50;;;6.80;99.90;;;;;;5035620;28;20426;-74
2021/01/06 11:12:38;;;;;;;16.53;12.60;;;7.20;99.90;;;;;;5067287;28;20401;-73
2021/01/06 11:15:22;;;;;;;17.20;12.93;;;7.40;99.90;;;;;;5033998;28;20974;-73
2021/01/06 11:18:08;;;;;;;18.57;13.10;;;7.20;99.90;;;;;;5035076;28;20463;-73
2021/01/06 11:20:37;;;;;;;22.60;14.67;;;7.00;99.90;;;;;;5035025;28;20460;-74
2021/01/06 11:23:24;;;;;;;19.37;14.83;;;6.90;99.90;;;;;;5036505;28;20421;-73
2021/01/06 11:25:56;;;;;;;20.50;12.77;;;6.80;99.90;;;;;;5035681;28;20486;-75
2021/01/06 11:28:59;;;;;;;18.37;14.00;;;6.70;99.90;;;;;;5035245;28;20422;-74
2021/01/06 11:31:36;;;;;;;22.83;14.70;;;6.70;99.90;;;;;;5034816;28;20402;-75
2021/01/06 11:34:10;;;;;;;17.80;14.23;;;6.50;99.90;;;;;;5034998;28;20429;-74
2021/01/06 11:36:45;;;;;;;18.10;13.37;;;6.40;99.90;;;;;;5034752;28;20541;-73
2021/01/06 11:39:35;;;;;;;18.30;14.43;;;6.30;99.90;;;;;;5034485;28;20425;-74
2021/01/06 11:42:17;;;;;;;21.17;15.63;;;6.10;99.90;;;;;;5034958;28;20907;-74
2021/01/06 11:45:10;;;;;;;20.03;15.13;;;6.10;99.90;;;;;;5034664;28;20418;-74
2021/01/06 11:47:49;;;;;;;19.17;14.83;;;5.90;99.90;;;;;;5035428;28;20488;-74
2021/01/06 11:50:40;;;;;;;21.63;15.30;;;5.80;99.90;;;;;;5035451;28;20566;-74
2021/01/06 11:53:18;;;;;;;20.30;15.00;;;5.70;99.90;;;;;;5035776;28;20416;-74
2021/01/06 11:55:59;;;;;;;21.90;15.10;;;5.60;99.90;;;;;;5066810;28;20463;-74
2021/01/06 11:59:02;;;;;;;18.70;14.37;;;5.70;99.90;;;;;;5032090;28;20445;-73
2021/01/06 12:01:59;;;;;;;22.10;16.00;;;5.50;99.90;;;;;;5019120;28;20449;-73
2021/01/06 12:04:35;;;;;;;22.40;15.97;;;5.50;99.90;;;;;;5034482;28;20799;-74
2021/01/06 12:07:29;;;;;;;24.13;16.70;;;5.50;99.90;;;;;;5031176;28;20410;-74
2021/01/06 12:10:20;;;;;;;28.03;20.50;;;5.40;99.90;;;;;;5033848;28;20468;-74
2021/01/06 12:13:03;;;;;;;35.53;22.60;;;5.50;99.90;;;;;;5033986;28;20428;-74
2021/01/06 12:15:42;;;;;;;32.97;22.03;;;5.50;99.90;;;;;;5033978;28;20476;-74
2021/01/06 12:18:38;;;;;;;33.17;21.10;;;5.50;99.90;;;;;;5032898;28;20410;-74
2021/01/06 12:21:39;;;;;;;33.90;21.40;;;5.50;99.90;;;;;;5028074;28;20426;-74
2021/01/06 12:24:29;;;;;;;35.40;23.00;;;5.40;99.90;;;;;;5033485;28;20873;-74
2021/01/06 12:27:03;;;;;;;38.67;24.57;;;5.40;99.90;;;;;;5023038;28;20417;-74
2021/01/06 12:29:46;;;;;;;34.23;22.20;;;5.30;99.90;;;;;;5032331;28;20402;-74
2021/01/06 12:32:35;;;;;;;35.10;22.27;;;5.40;99.90;;;;;;5028262;28;20418;-74
2021/01/06 12:35:19;;;;;;;36.50;22.43;;;5.20;99.90;;;;;;5033284;28;20468;-74
2021/01/06 12:37:57;;;;;;;32.93;20.57;;;5.10;99.90;;;;;;5033768;28;20767;-74
2021/01/06 12:40:24;;;;;;;29.90;21.77;;;5.20;99.90;;;;;;5022552;28;20512;-74
2021/01/06 12:42:59;;;;;;;34.40;23.70;;;5.20;99.90;;;;;;5034339;28;20904;-74
2021/01/06 12:45:30;;;;;;;39.60;24.10;;;5.20;99.90;;;;;;5033133;28;20596;-75
2021/01/06 12:48:12;;;;;;;33.50;22.10;;;5.20;99.90;;;;;;5031688;28;20488;-73
2021/01/06 12:50:49;;;;;;;35.30;23.53;;;5.20;99.90;;;;;;5033068;28;20426;-75
2021/01/06 12:53:23;;;;;;;36.13;22.37;;;5.30;99.90;;;;;;5032684;28;20442;-74
2021/01/06 12:56:12;;;;;;;37.47;24.60;;;5.30;99.90;;;;;;5033102;28;20445;-74
2021/01/06 12:59:06;;;;;;;37.00;24.50;;;5.30;99.90;;;;;;5033553;28;20414;-75
2021/01/06 13:01:50;;;;;;;34.40;23.13;;;5.30;99.90;;;;;;5031018;28;20429;-74
2021/01/06 13:04:19;;;;;;;37.83;24.10;;;5.30;99.90;;;;;;5033070;28;20418;-74
2021/01/06 13:06:44;;;;;;;36.90;24.40;;;5.30;99.90;;;;;;5032499;28;20421;-74
2021/01/06 13:09:13;;;;;;;37.80;23.90;;;5.30;99.90;;;;;;5033058;28;20418;-74
2021/01/06 13:11:39;;;;;;;34.53;22.80;;;5.40;99.90;;;;;;5030801;28;20175;-74
2021/01/06 13:14:16;;;;;;;37.33;22.37;;;5.40;99.90;;;;;;5031940;28;20445;-74
2021/01/06 13:17:01;;;;;;;32.47;21.80;;;5.30;99.90;;;;;;5032169;28;20282;-74
2021/01/06 13:19:29;;;;;;;31.20;20.20;;;5.30;99.90;;;;;;5032513;28;20430;-74
2021/01/06 13:22:16;;;;;;;31.03;19.80;;;5.40;99.90;;;;;;5032260;28;20433;-74